createdAt,value
2023-02-27T00:00:32.544Z,49.87
2023-02-27T00:01:36.699Z,49.74
2023-02-27T00:02:40.898Z,49.71
2023-02-27T00:03:45.105Z,49.64
2023-02-27T00:04:49.286Z,49.54
2023-02-27T00:05:53.392Z,49.73
2023-02-27T00:06:57.521Z,49.63
2023-02-27T00:08:01.656Z,49.56
2023-02-27T00:09:06.037Z,49.55
2023-02-27T00:10:10.200Z,49.64
2023-02-27T00:11:14.329Z,49.6
2023-02-27T00:12:18.438Z,49.53
2023-02-27T00:13:22.541Z,49.63
2023-02-27T00:14:26.643Z,49.68
2023-02-27T00:15:30.826Z,49.61
2023-02-27T00:16:34.965Z,49.64
2023-02-27T00:17:39.380Z,49.64
2023-02-27T00:18:43.681Z,49.66
2023-02-27T00:19:47.788Z,49.69
2023-02-27T00:20:51.876Z,49.72
2023-02-27T00:21:55.964Z,49.76
2023-02-27T00:23:00.106Z,49.69
2023-02-27T00:24:04.229Z,49.72
2023-02-27T00:25:08.453Z,49.84
2023-02-27T00:26:12.577Z,49.85
2023-02-27T00:27:16.683Z,49.82
2023-02-27T00:28:20.799Z,49.81
2023-02-27T00:29:24.911Z,49.86
2023-02-27T00:30:29.155Z,49.95
2023-02-27T00:31:33.390Z,50.1
2023-02-27T00:32:37.865Z,50.02
2023-02-27T00:33:41.989Z,50.08
2023-02-27T00:34:46.091Z,50.04
2023-02-27T00:35:50.195Z,50.1
2023-02-27T00:36:54.392Z,50.25
2023-02-27T00:37:58.503Z,50.21
2023-02-27T00:39:02.623Z,50.15
2023-02-27T00:40:06.752Z,50.23
2023-02-27T00:41:10.858Z,50.47
2023-02-27T00:42:14.956Z,50.34
2023-02-27T00:43:19.166Z,50.26
2023-02-27T00:44:23.283Z,50.29
2023-02-27T00:45:27.428Z,50.42
2023-02-27T00:46:31.649Z,50.44
2023-02-27T00:47:35.857Z,50.42
2023-02-27T00:48:39.969Z,50.49
2023-02-27T00:49:44.075Z,50.5
2023-02-27T00:50:48.173Z,50.44
2023-02-27T00:51:52.278Z,50.47
2023-02-27T00:52:56.439Z,50.39
2023-02-27T00:54:00.858Z,50.44
2023-02-27T00:55:05.001Z,50.6
2023-02-27T00:56:09.100Z,50.46
2023-02-27T00:57:13.283Z,50.49
2023-02-27T00:58:17.651Z,50.52
2023-02-27T00:59:21.785Z,50.49
2023-02-27T01:00:25.930Z,50.54
2023-02-27T01:01:30.458Z,50.5
2023-02-27T01:02:34.725Z,50.54
2023-02-27T01:03:38.833Z,50.57
2023-02-27T01:04:42.948Z,50.57
2023-02-27T01:05:47.075Z,50.54
2023-02-27T01:06:51.237Z,50.48
2023-02-27T01:07:55.402Z,50.49
2023-02-27T01:08:59.527Z,50.51
2023-02-27T01:10:03.692Z,50.56
2023-02-27T01:11:07.798Z,50.61
2023-02-27T01:12:11.936Z,50.54
2023-02-27T01:13:16.045Z,50.57
2023-02-27T01:14:20.168Z,50.52
2023-02-27T01:15:24.292Z,50.55
2023-02-27T01:16:28.678Z,50.51
2023-02-27T01:17:32.886Z,50.41
2023-02-27T01:18:37.044Z,50.33
2023-02-27T01:19:41.186Z,50.33
2023-02-27T01:20:45.299Z,50.43
2023-02-27T01:21:49.416Z,50.39
2023-02-27T01:22:53.552Z,50.33
2023-02-27T01:23:57.655Z,50.43
2023-02-27T01:25:01.763Z,50.53
2023-02-27T01:26:05.909Z,50.54
2023-02-27T01:27:10.048Z,50.59
2023-02-27T01:28:14.228Z,50.48
2023-02-27T01:29:18.364Z,50.5
2023-02-27T01:30:22.561Z,50.47
2023-02-27T01:31:28.110Z,50.54
2023-02-27T01:32:32.842Z,50.45
2023-02-27T01:33:36.977Z,50.47
2023-02-27T01:34:41.101Z,50.46
2023-02-27T01:35:45.195Z,50.45
2023-02-27T01:36:49.312Z,50.71
2023-02-27T01:37:53.438Z,50.49
2023-02-27T01:38:57.550Z,50.67
2023-02-27T01:40:01.690Z,50.61
2023-02-27T01:41:05.846Z,50.5
2023-02-27T01:42:10.985Z,50.43
2023-02-27T01:43:15.865Z,50.4
2023-02-27T01:44:19.965Z,50.49
2023-02-27T01:45:24.103Z,50.25
2023-02-27T01:46:28.206Z,50.28
2023-02-27T01:47:32.292Z,50.22
2023-02-27T01:48:36.400Z,50.48
2023-02-27T01:49:40.499Z,50.56
2023-02-27T01:50:44.615Z,50.69
2023-02-27T01:51:48.698Z,50.47
2023-02-27T01:52:52.894Z,50.5
2023-02-27T01:53:57.030Z,50.5
2023-02-27T01:55:01.145Z,50.47
2023-02-27T01:56:05.306Z,50.46
2023-02-27T01:57:09.405Z,50.63
2023-02-27T01:58:13.545Z,50.71
2023-02-27T01:59:17.659Z,50.61
2023-02-27T02:00:21.749Z,50.58
2023-02-27T02:01:27.000Z,50.73
2023-02-27T02:02:31.447Z,50.55
2023-02-27T02:03:35.550Z,50.67
2023-02-27T02:04:39.678Z,50.64
2023-02-27T02:05:43.812Z,50.57
2023-02-27T02:06:47.932Z,50.67
2023-02-27T02:07:52.029Z,50.74
2023-02-27T02:08:56.180Z,50.8
2023-02-27T02:10:00.316Z,50.68
2023-02-27T02:11:04.427Z,50.63
2023-02-27T02:12:08.521Z,50.68
2023-02-27T02:13:12.629Z,50.57
2023-02-27T02:14:16.950Z,50.77
2023-02-27T02:15:21.078Z,50.71
2023-02-27T02:16:25.301Z,50.71
2023-02-27T02:17:29.424Z,50.85
2023-02-27T02:18:33.540Z,50.8
2023-02-27T02:19:37.663Z,50.53
2023-02-27T02:20:41.964Z,50.49
2023-02-27T02:21:46.051Z,50.35
2023-02-27T02:22:50.221Z,50.33
2023-02-27T02:23:54.345Z,50.4
2023-02-27T02:24:58.443Z,50.3
2023-02-27T02:26:02.570Z,50.31
2023-02-27T02:27:06.697Z,50.29
2023-02-27T02:28:10.826Z,50.18
2023-02-27T02:29:14.951Z,50.21
2023-02-27T02:30:19.100Z,50.23
2023-02-27T02:31:23.700Z,50.24
2023-02-27T02:32:28.100Z,50.11
2023-02-27T02:33:32.240Z,50.29
2023-02-27T02:34:36.374Z,50.26
2023-02-27T02:35:40.508Z,50.3
2023-02-27T02:36:44.603Z,50.24
2023-02-27T02:37:48.706Z,50.27
2023-02-27T02:38:52.827Z,50.25
2023-02-27T02:39:56.957Z,50.23
2023-02-27T02:41:01.088Z,50.2
2023-02-27T02:42:05.211Z,50.19
2023-02-27T02:43:09.308Z,50.17
2023-02-27T02:44:13.394Z,50.12
2023-02-27T02:45:17.512Z,49.98
2023-02-27T02:46:21.794Z,50.1
2023-02-27T02:47:25.962Z,50.19
2023-02-27T02:48:30.058Z,50.11
2023-02-27T02:49:34.156Z,50.11
2023-02-27T02:50:38.250Z,50.16
2023-02-27T02:51:42.370Z,50.14
2023-02-27T02:52:46.496Z,50.02
2023-02-27T02:53:50.592Z,49.91
2023-02-27T02:54:54.706Z,49.96
2023-02-27T02:55:58.821Z,50.03
2023-02-27T02:57:02.947Z,50.02
2023-02-27T02:58:07.065Z,50.08
2023-02-27T02:59:11.177Z,50.12
2023-02-27T03:00:15.292Z,50.05
2023-02-27T03:01:19.636Z,50.08
2023-02-27T03:02:23.798Z,49.96
2023-02-27T03:03:28.007Z,50.02
2023-02-27T03:04:32.343Z,49.96
2023-02-27T03:05:36.490Z,49.92
2023-02-27T03:06:40.619Z,50.04
2023-02-27T03:07:44.893Z,50.14
2023-02-27T03:08:49.037Z,50.08
2023-02-27T03:09:53.123Z,49.96
2023-02-27T03:10:57.238Z,49.88
2023-02-27T03:12:01.359Z,50.06
2023-02-27T03:13:05.659Z,50.07
2023-02-27T03:14:09.760Z,49.98
2023-02-27T03:15:13.870Z,50.01
2023-02-27T03:16:18.199Z,49.86
2023-02-27T03:17:22.292Z,49.81
2023-02-27T03:18:26.538Z,49.74
2023-02-27T03:19:30.701Z,49.65
2023-02-27T03:20:34.805Z,49.62
2023-02-27T03:21:38.912Z,49.51
2023-02-27T03:22:43.175Z,49.44
2023-02-27T03:23:47.314Z,49.43
2023-02-27T03:24:51.414Z,49.41
2023-02-27T03:25:58.524Z,49.33
2023-02-27T03:27:02.677Z,49.31
2023-02-27T03:28:06.784Z,49.25
2023-02-27T03:29:11.119Z,49.25
2023-02-27T03:30:15.247Z,49.21
2023-02-27T03:31:19.674Z,49.15
2023-02-27T03:32:23.981Z,49.07
2023-02-27T03:33:28.212Z,49.03
2023-02-27T03:34:32.329Z,49.01
2023-02-27T03:35:36.408Z,48.95
2023-02-27T03:36:40.500Z,48.93
2023-02-27T03:37:44.645Z,48.89
2023-02-27T03:38:48.752Z,48.82
2023-02-27T03:39:52.844Z,48.81
2023-02-27T03:40:56.948Z,48.78
2023-02-27T03:42:01.108Z,48.74
2023-02-27T03:43:05.199Z,48.66
2023-02-27T03:44:09.338Z,48.66
2023-02-27T03:45:13.447Z,48.65
2023-02-27T03:46:17.638Z,48.61
2023-02-27T03:47:21.787Z,48.54
2023-02-27T03:48:25.896Z,48.48
2023-02-27T03:49:30.030Z,48.45
2023-02-27T03:50:34.123Z,48.36
2023-02-27T03:51:38.260Z,48.33
2023-02-27T03:52:42.463Z,48.37
2023-02-27T03:53:46.659Z,48.27
2023-02-27T03:54:50.807Z,48.28
2023-02-27T03:55:54.899Z,48.25
2023-02-27T03:56:59.022Z,48.15
2023-02-27T03:58:03.125Z,48.09
2023-02-27T03:59:07.241Z,48.06
2023-02-27T04:00:11.361Z,48.01
2023-02-27T04:01:15.458Z,47.99
2023-02-27T04:02:19.560Z,48.02
2023-02-27T04:03:23.687Z,47.96
2023-02-27T04:04:27.834Z,47.89
2023-02-27T04:05:31.937Z,47.86
2023-02-27T04:06:36.047Z,47.85
2023-02-27T04:07:40.151Z,47.81
2023-02-27T04:08:44.256Z,47.81
2023-02-27T04:09:48.396Z,47.78
2023-02-27T04:10:52.649Z,47.71
2023-02-27T04:11:56.750Z,47.72
2023-02-27T04:13:00.851Z,47.64
2023-02-27T04:14:04.962Z,47.59
2023-02-27T04:15:09.093Z,47.51
2023-02-27T04:16:13.437Z,47.5
2023-02-27T04:17:17.605Z,47.41
2023-02-27T04:18:21.829Z,47.51
2023-02-27T04:19:25.963Z,47.5
2023-02-27T04:20:30.082Z,47.5
2023-02-27T04:21:34.183Z,47.48
2023-02-27T04:22:38.431Z,47.53
2023-02-27T04:23:42.614Z,47.49
2023-02-27T04:24:46.712Z,47.48
2023-02-27T04:25:50.824Z,47.51
2023-02-27T04:26:54.965Z,47.52
2023-02-27T04:27:59.088Z,47.54
2023-02-27T04:29:03.223Z,47.6
2023-02-27T04:30:07.389Z,47.61
2023-02-27T04:31:11.884Z,47.68
2023-02-27T04:32:16.436Z,47.79
2023-02-27T04:33:20.616Z,47.84
2023-02-27T04:34:24.702Z,47.88
2023-02-27T04:35:28.796Z,47.94
2023-02-27T04:36:32.907Z,47.98
2023-02-27T04:37:37.017Z,48.01
2023-02-27T04:38:41.125Z,47.95
2023-02-27T04:39:45.240Z,48
2023-02-27T04:40:49.361Z,47.94
2023-02-27T04:41:53.473Z,47.88
2023-02-27T04:42:57.581Z,47.8
2023-02-27T04:44:01.657Z,47.78
2023-02-27T04:45:05.759Z,47.74
2023-02-27T04:46:10.209Z,47.81
2023-02-27T04:47:14.360Z,47.84
2023-02-27T04:48:18.490Z,47.82
2023-02-27T04:49:22.631Z,47.87
2023-02-27T04:50:26.763Z,47.86
2023-02-27T04:51:31.308Z,47.84
2023-02-27T04:52:35.486Z,47.8
2023-02-27T04:53:39.617Z,47.78
2023-02-27T04:54:43.762Z,47.77
2023-02-27T04:55:47.898Z,47.71
2023-02-27T04:56:51.985Z,47.69
2023-02-27T04:57:56.090Z,47.66
2023-02-27T04:59:00.222Z,47.54
2023-02-27T05:00:04.348Z,47.44
2023-02-27T05:01:08.464Z,47.41
2023-02-27T05:02:13.014Z,47.4
2023-02-27T05:03:17.248Z,47.32
2023-02-27T05:04:21.348Z,47.35
2023-02-27T05:05:25.442Z,47.34
2023-02-27T05:06:29.529Z,47.35
2023-02-27T05:07:33.665Z,47.36
2023-02-27T05:08:37.785Z,47.42
2023-02-27T05:09:41.946Z,47.41
2023-02-27T05:10:46.065Z,47.44
2023-02-27T05:11:50.167Z,47.51
2023-02-27T05:12:54.305Z,47.57
2023-02-27T05:13:58.411Z,47.63
2023-02-27T05:15:02.565Z,47.64
2023-02-27T05:16:07.112Z,47.7
2023-02-27T05:17:11.306Z,47.75
2023-02-27T05:18:15.707Z,47.79
2023-02-27T05:19:19.860Z,47.79
2023-02-27T05:20:23.969Z,47.83
2023-02-27T05:21:29.816Z,47.79
2023-02-27T05:22:34.105Z,47.79
2023-02-27T05:23:38.257Z,47.78
2023-02-27T05:24:42.362Z,47.76
2023-02-27T05:25:46.509Z,47.71
2023-02-27T05:26:50.644Z,47.64
2023-02-27T05:27:54.760Z,47.66
2023-02-27T05:28:58.965Z,47.6
2023-02-27T05:30:03.079Z,47.6
2023-02-27T05:31:07.208Z,47.63
2023-02-27T05:32:11.756Z,47.6
2023-02-27T05:33:15.965Z,47.58
2023-02-27T05:34:20.157Z,47.52
2023-02-27T05:35:24.288Z,47.46
2023-02-27T05:36:28.386Z,47.44
2023-02-27T05:37:32.580Z,47.43
2023-02-27T05:38:36.677Z,47.42
2023-02-27T05:39:40.782Z,47.46
2023-02-27T05:40:45.005Z,47.54
2023-02-27T05:41:49.246Z,47.54
2023-02-27T05:42:53.358Z,47.62
2023-02-27T05:43:57.478Z,47.67
2023-02-27T05:45:01.629Z,47.68
2023-02-27T05:46:05.961Z,47.72
2023-02-27T05:47:10.090Z,47.74
2023-02-27T05:48:14.215Z,47.83
2023-02-27T05:49:18.363Z,47.87
2023-02-27T05:50:22.516Z,47.88
2023-02-27T05:51:27.662Z,47.94
2023-02-27T05:52:31.942Z,47.97
2023-02-27T05:53:36.068Z,47.98
2023-02-27T05:54:40.217Z,48.07
2023-02-27T05:55:44.362Z,48.06
2023-02-27T05:56:48.474Z,48.1
2023-02-27T05:57:52.586Z,48.14
2023-02-27T05:58:56.699Z,48.2
2023-02-27T06:00:00.829Z,48.25
2023-02-27T06:01:04.984Z,48.26
2023-02-27T06:02:09.297Z,48.32
2023-02-27T06:03:13.664Z,48.32
2023-02-27T06:04:17.825Z,48.34
2023-02-27T06:05:21.932Z,48.36
2023-02-27T06:06:26.782Z,48.38
2023-02-27T06:07:31.102Z,48.42
2023-02-27T06:08:35.238Z,48.41
2023-02-27T06:09:39.389Z,48.42
2023-02-27T06:10:43.501Z,48.53
2023-02-27T06:11:47.608Z,48.46
2023-02-27T06:12:51.725Z,48.53
2023-02-27T06:13:55.846Z,48.57
2023-02-27T06:14:59.970Z,48.58
2023-02-27T06:16:04.064Z,48.62
2023-02-27T06:17:08.372Z,48.58
2023-02-27T06:18:12.496Z,48.64
2023-02-27T06:19:16.598Z,48.67
2023-02-27T06:20:20.748Z,48.68
2023-02-27T06:21:24.854Z,48.72
2023-02-27T06:22:28.989Z,48.83
2023-02-27T06:23:33.117Z,48.94
2023-02-27T06:24:37.226Z,48.93
2023-02-27T06:25:41.433Z,48.99
2023-02-27T06:26:45.540Z,49.02
2023-02-27T06:27:49.646Z,49.25
2023-02-27T06:28:53.776Z,49.37
2023-02-27T06:29:57.902Z,49.43
2023-02-27T06:31:02.241Z,49.47
2023-02-27T06:32:06.520Z,49.43
2023-02-27T06:33:10.679Z,49.46
2023-02-27T06:34:14.827Z,49.41
2023-02-27T06:35:18.953Z,49.4
2023-02-27T06:36:23.084Z,49.68
2023-02-27T06:37:27.184Z,49.63
2023-02-27T06:38:31.265Z,49.6
2023-02-27T06:39:35.389Z,49.45
2023-02-27T06:40:39.517Z,49.33
2023-02-27T06:41:43.649Z,49.28
2023-02-27T06:42:47.825Z,49.35
2023-02-27T06:43:51.940Z,49.4
2023-02-27T06:44:56.280Z,49.52
2023-02-27T06:46:00.624Z,49.25
2023-02-27T06:47:04.777Z,49.39
2023-02-27T06:48:08.925Z,49.35
2023-02-27T06:49:13.096Z,49.27
2023-02-27T06:50:17.213Z,49.22
2023-02-27T06:51:21.350Z,49.31
2023-02-27T06:52:25.491Z,49.18
2023-02-27T06:53:29.591Z,49.19
2023-02-27T06:54:33.715Z,49.21
2023-02-27T06:55:37.868Z,49.3
2023-02-27T06:56:42.024Z,49.29
2023-02-27T06:57:46.167Z,49.34
2023-02-27T06:58:50.402Z,49.34
2023-02-27T06:59:54.523Z,49.35
2023-02-27T07:00:58.645Z,49.33
2023-02-27T07:02:02.804Z,49.31
2023-02-27T07:03:06.942Z,49.35
2023-02-27T07:04:11.033Z,49.15
2023-02-27T07:05:15.171Z,49
2023-02-27T07:06:19.555Z,48.86
2023-02-27T07:07:40.013Z,48.8
2023-02-27T07:09:08.007Z,48.99
2023-02-27T07:10:12.208Z,49.1
2023-02-27T07:11:16.316Z,49.29
2023-02-27T07:12:20.423Z,49.33
2023-02-27T07:13:24.557Z,49.56
2023-02-27T07:14:28.698Z,49.57
2023-02-27T07:15:32.981Z,49.36
2023-02-27T07:16:37.123Z,49.4
2023-02-27T07:17:41.238Z,49.26
2023-02-27T07:18:45.400Z,49.22
2023-02-27T07:19:49.590Z,49.01
2023-02-27T07:20:53.693Z,49
2023-02-27T07:21:57.855Z,49.26
2023-02-27T07:23:01.983Z,49.44
2023-02-27T07:24:06.140Z,49.58
2023-02-27T07:25:10.258Z,49.72
2023-02-27T07:26:14.377Z,49.69
2023-02-27T07:27:18.486Z,49.68
2023-02-27T07:28:22.870Z,49.5
2023-02-27T07:29:27.028Z,49.36
2023-02-27T07:30:31.165Z,49.16
2023-02-27T07:31:35.564Z,48.94
2023-02-27T07:32:39.739Z,49.06
2023-02-27T07:33:43.833Z,49.31
2023-02-27T07:34:47.951Z,49.38
2023-02-27T07:35:52.179Z,49.48
2023-02-27T07:36:56.348Z,49.38
2023-02-27T07:38:00.453Z,49.4
2023-02-27T07:39:04.538Z,49.55
2023-02-27T07:40:08.682Z,49.48
2023-02-27T07:41:31.731Z,49.39
2023-02-27T07:42:35.871Z,49.23
2023-02-27T07:43:40.036Z,49.35
2023-02-27T07:44:44.169Z,49.32
2023-02-27T07:45:48.573Z,49.12
2023-02-27T07:46:52.916Z,49.32
2023-02-27T07:47:57.088Z,49.3
2023-02-27T07:49:01.220Z,49.41
2023-02-27T07:50:06.623Z,49.27
2023-02-27T07:51:10.767Z,49.29
2023-02-27T07:52:14.888Z,49.4
2023-02-27T07:53:19.013Z,49.38
2023-02-27T07:54:23.327Z,49.44
2023-02-27T07:55:27.502Z,49.45
2023-02-27T07:56:32.222Z,49.15
2023-02-27T07:57:36.374Z,49.03
2023-02-27T07:58:40.491Z,49.54
2023-02-27T07:59:44.641Z,49.48
2023-02-27T08:00:48.747Z,49.26
2023-02-27T08:01:52.875Z,49.33
2023-02-27T08:02:57.217Z,49.24
2023-02-27T08:04:01.359Z,49.26
2023-02-27T08:05:05.552Z,49.33
2023-02-27T08:06:09.660Z,49.37
2023-02-27T08:07:13.784Z,48.95
2023-02-27T08:08:17.902Z,48.65
2023-02-27T08:09:21.994Z,48.65
2023-02-27T08:10:26.260Z,49.27
2023-02-27T08:11:31.208Z,49.23
2023-02-27T08:12:35.432Z,49.07
2023-02-27T08:14:09.534Z,49.14
2023-02-27T08:15:13.675Z,49.04
2023-02-27T08:16:17.901Z,48.98
2023-02-27T08:17:22.035Z,48.95
2023-02-27T08:18:26.165Z,49.01
2023-02-27T08:19:30.309Z,49.32
2023-02-27T08:20:34.422Z,49.39
2023-02-27T08:21:38.516Z,49.22
2023-02-27T08:22:42.659Z,49.18
2023-02-27T08:23:46.794Z,48.96
2023-02-27T08:24:50.906Z,49.1
2023-02-27T08:25:55.018Z,49.31
2023-02-27T08:26:59.232Z,49.06
2023-02-27T08:28:03.362Z,49.07
2023-02-27T08:29:07.521Z,49.14
2023-02-27T08:30:11.968Z,49.05
2023-02-27T08:31:16.427Z,49.31
2023-02-27T08:32:20.745Z,49.41
2023-02-27T08:33:24.892Z,49.67
2023-02-27T08:34:29.051Z,49.39
2023-02-27T08:35:33.354Z,49.39
2023-02-27T08:36:37.508Z,49.44
2023-02-27T08:37:41.695Z,49.37
2023-02-27T08:38:45.826Z,49.28
2023-02-27T08:39:49.942Z,49
2023-02-27T08:40:54.085Z,49.76
2023-02-27T08:41:58.221Z,49.91
2023-02-27T08:43:02.330Z,50.04
2023-02-27T08:44:06.656Z,49.6
2023-02-27T08:45:10.824Z,49.27
2023-02-27T08:46:15.215Z,49.07
2023-02-27T08:47:19.334Z,49.16
2023-02-27T08:48:23.463Z,49.38
2023-02-27T08:49:27.615Z,49.07
2023-02-27T08:50:31.820Z,49
2023-02-27T08:51:35.964Z,48.94
2023-02-27T08:52:40.128Z,49.84
2023-02-27T08:53:44.264Z,49.4
2023-02-27T08:54:48.398Z,49.02
2023-02-27T08:55:52.520Z,48.94
2023-02-27T08:56:56.629Z,48.77
2023-02-27T08:58:00.739Z,47.68
2023-02-27T08:59:04.888Z,47.57
2023-02-27T09:00:09.229Z,47.44
2023-02-27T09:01:13.659Z,47.62
2023-02-27T09:02:18.322Z,47.63
2023-02-27T09:03:22.511Z,47.58
2023-02-27T09:04:26.720Z,47.63
2023-02-27T09:05:35.651Z,47.57
2023-02-27T09:06:39.787Z,47.52
2023-02-27T09:07:43.922Z,47.64
2023-02-27T09:08:48.172Z,47.76
2023-02-27T09:09:52.265Z,47.78
2023-02-27T09:10:56.480Z,47.85
2023-02-27T09:12:00.600Z,47.94
2023-02-27T09:13:04.726Z,48.03
2023-02-27T09:14:10.895Z,48.08
2023-02-27T09:15:15.059Z,48.16
2023-02-27T09:16:19.312Z,48.17
2023-02-27T09:17:23.442Z,48.24
2023-02-27T09:18:27.651Z,48.3
